createdAt,value
2023-01-17T00:02:10.618Z,2.90
2023-01-17T00:04:29.141Z,2.50
2023-01-17T00:06:46.178Z,2.88
2023-01-17T00:09:03.197Z,2.65
2023-01-17T00:11:21.142Z,2.60
2023-01-17T00:13:38.558Z,2.67
2023-01-17T00:15:55.758Z,2.63
2023-01-17T00:18:12.734Z,2.70
2023-01-17T00:20:29.846Z,2.70
2023-01-17T00:22:47.157Z,2.97
2023-01-17T00:25:04.147Z,2.80
2023-01-17T00:27:21.190Z,2.50
2023-01-17T00:29:42.286Z,3.00
2023-01-17T00:31:59.363Z,2.80
2023-01-17T00:34:16.707Z,3.00
2023-01-17T00:36:33.805Z,2.83
2023-01-17T00:38:50.896Z,2.80
2023-01-17T00:41:10.752Z,2.75
2023-01-17T00:43:28.654Z,2.55
2023-01-17T00:45:48.877Z,2.80
2023-01-17T00:48:06.104Z,2.80
2023-01-17T00:50:23.254Z,2.70
2023-01-17T00:52:40.330Z,2.60
2023-01-17T00:54:57.400Z,2.50
2023-01-17T00:57:14.310Z,3.13
2023-01-17T00:59:31.746Z,2.63
2023-01-17T01:01:48.906Z,3.15
2023-01-17T01:04:06.032Z,2.42
2023-01-17T01:06:23.015Z,2.80
2023-01-17T01:08:40.183Z,2.70
2023-01-17T01:10:57.448Z,3.03
2023-01-17T01:13:14.696Z,2.97
2023-01-17T01:15:32.792Z,2.90
2023-01-17T01:17:49.740Z,2.88
2023-01-17T01:20:07.258Z,2.63
2023-01-17T01:22:25.248Z,2.95
2023-01-17T01:24:42.501Z,2.75
2023-01-17T01:26:59.607Z,2.40
2023-01-17T01:29:16.898Z,2.63
2023-01-17T01:31:34.310Z,2.50
2023-01-17T01:33:51.242Z,2.50
2023-01-17T01:36:08.580Z,2.75
2023-01-17T01:38:25.979Z,2.30
2023-01-17T01:40:43.033Z,2.58
2023-01-17T01:43:00.061Z,3.00
2023-01-17T01:45:17.199Z,2.80
2023-01-17T01:47:34.241Z,3.13
2023-01-17T01:49:51.512Z,2.95
2023-01-17T01:52:08.553Z,2.95
2023-01-17T01:54:25.561Z,3.00
2023-01-17T01:56:42.986Z,3.00
2023-01-17T01:59:00.240Z,2.80
2023-01-17T02:01:17.611Z,3.28
2023-01-17T02:03:34.692Z,3.08
2023-01-17T02:05:51.843Z,3.78
2023-01-17T02:08:09.137Z,3.30
2023-01-17T02:10:26.493Z,2.90
2023-01-17T02:12:43.796Z,2.80
2023-01-17T02:15:00.737Z,3.10
2023-01-17T02:17:17.723Z,3.30
2023-01-17T02:19:34.742Z,3.00
2023-01-17T02:21:52.091Z,3.20
2023-01-17T02:24:09.125Z,3.42
2023-01-17T02:26:26.181Z,3.22
2023-01-17T02:28:43.259Z,3.20
2023-01-17T02:31:00.472Z,3.35
2023-01-17T02:33:17.774Z,3.08
2023-01-17T02:35:34.847Z,3.42
2023-01-17T02:37:52.771Z,3.08
2023-01-17T02:40:10.041Z,3.33
2023-01-17T02:42:27.107Z,3.40
2023-01-17T02:44:44.196Z,3.22
2023-01-17T02:47:01.234Z,3.05
2023-01-17T02:49:18.552Z,2.80
2023-01-17T02:51:35.476Z,2.90
2023-01-17T02:53:52.315Z,3.00
2023-01-17T02:56:10.882Z,3.03
2023-01-17T02:58:28.313Z,3.17
2023-01-17T03:00:45.720Z,3.20
2023-01-17T03:03:02.842Z,3.10
2023-01-17T03:05:20.422Z,3.20
2023-01-17T03:07:37.573Z,2.90
2023-01-17T03:09:54.862Z,3.30
2023-01-17T03:12:11.888Z,3.00
2023-01-17T03:14:29.089Z,2.95
2023-01-17T03:16:46.396Z,3.10
2023-01-17T03:19:03.421Z,3.10
2023-01-17T03:21:21.374Z,3.03
2023-01-17T03:23:38.309Z,3.00
2023-01-17T03:25:59.269Z,2.95
2023-01-17T03:28:16.383Z,3.00
2023-01-17T03:30:33.368Z,3.00
2023-01-17T03:32:50.330Z,3.13
2023-01-17T03:35:07.227Z,3.30
2023-01-17T03:37:24.474Z,3.05
2023-01-17T03:39:41.449Z,3.30
2023-01-17T03:41:58.682Z,3.10
2023-01-17T03:44:15.737Z,3.38
2023-01-17T03:46:32.753Z,3.97
2023-01-17T03:48:51.008Z,3.33
2023-01-17T03:51:08.247Z,3.22
2023-01-17T03:53:26.503Z,3.47
2023-01-17T03:55:43.498Z,3.15
2023-01-17T03:58:00.548Z,3.10
2023-01-17T04:00:17.469Z,3.35
2023-01-17T04:02:34.432Z,3.55
2023-01-17T04:04:51.364Z,3.35
2023-01-17T04:07:08.383Z,3.60
2023-01-17T04:09:26.365Z,3.10
2023-01-17T04:11:43.886Z,3.70
2023-01-17T04:14:01.143Z,3.03
2023-01-17T04:16:19.216Z,3.05
2023-01-17T04:18:36.153Z,3.10
2023-01-17T04:20:53.232Z,3.28
2023-01-17T04:23:10.227Z,3.40
2023-01-17T04:25:28.198Z,3.17
2023-01-17T04:27:45.206Z,3.38
2023-01-17T04:30:03.548Z,3.22
2023-01-17T04:32:20.631Z,3.20
2023-01-17T04:34:37.631Z,3.30
2023-01-17T04:36:54.677Z,3.40
2023-01-17T04:39:12.018Z,3.17
2023-01-17T04:41:29.214Z,3.10
2023-01-17T04:43:46.196Z,3.08
2023-01-17T04:46:03.275Z,3.00
2023-01-17T04:48:20.354Z,3.10
2023-01-17T04:50:37.401Z,2.78
2023-01-17T04:52:55.587Z,3.10
2023-01-17T04:55:12.523Z,2.70
2023-01-17T04:57:29.850Z,3.00
2023-01-17T04:59:46.903Z,2.95
2023-01-17T05:02:03.989Z,2.80
2023-01-17T05:04:21.110Z,3.15
2023-01-17T05:06:38.476Z,3.35
2023-01-17T05:08:55.741Z,3.25
2023-01-17T05:11:13.330Z,4.05
2023-01-17T05:13:31.509Z,2.80
2023-01-17T05:15:48.816Z,2.70
2023-01-17T05:18:06.061Z,3.10
2023-01-17T05:20:23.316Z,3.15
2023-01-17T05:22:40.356Z,2.70
2023-01-17T05:24:57.416Z,3.10
2023-01-17T05:27:14.455Z,2.88
2023-01-17T05:29:31.459Z,2.70
2023-01-17T05:31:48.440Z,3.08
2023-01-17T05:34:05.535Z,2.97
2023-01-17T05:36:22.472Z,2.28
2023-01-17T05:38:39.427Z,2.55
2023-01-17T05:40:57.440Z,2.90
2023-01-17T05:43:14.394Z,2.70
2023-01-17T05:45:31.338Z,2.88
2023-01-17T05:47:48.327Z,3.00
2023-01-17T05:50:05.241Z,2.70
2023-01-17T05:52:22.113Z,2.65
2023-01-17T05:54:40.298Z,2.70
2023-01-17T05:56:57.411Z,2.60
2023-01-17T05:59:14.523Z,2.38
2023-01-17T06:01:32.109Z,2.72
2023-01-17T06:03:49.292Z,2.72
2023-01-17T06:06:07.552Z,2.63
2023-01-17T06:08:24.569Z,2.83
2023-01-17T06:10:41.647Z,2.53
2023-01-17T06:12:58.915Z,2.50
2023-01-17T06:15:17.073Z,2.60
2023-01-17T06:17:34.109Z,3.08
2023-01-17T06:19:51.447Z,2.58
2023-01-17T06:22:08.482Z,2.60
2023-01-17T06:24:25.463Z,2.67
2023-01-17T06:26:42.648Z,2.20
2023-01-17T06:29:00.983Z,2.40
2023-01-17T06:31:18.080Z,2.42
2023-01-17T06:33:35.360Z,2.08
2023-01-17T06:35:52.284Z,2.20
2023-01-17T06:38:10.571Z,2.22
2023-01-17T06:40:27.596Z,2.10
2023-01-17T06:42:44.627Z,2.45
2023-01-17T06:45:01.635Z,2.75
2023-01-17T06:47:18.872Z,3.58
2023-01-17T06:49:35.867Z,3.40
2023-01-17T06:51:52.863Z,3.05
2023-01-17T06:54:10.184Z,3.00
2023-01-17T06:56:27.532Z,3.00
2023-01-17T06:58:44.469Z,3.53
2023-01-17T07:01:02.381Z,3.55
2023-01-17T07:03:19.679Z,4.75
2023-01-17T07:05:36.616Z,3.60
2023-01-17T07:07:53.698Z,3.88
2023-01-17T07:10:10.721Z,4.30
2023-01-17T07:12:27.717Z,3.58
2023-01-17T07:14:44.996Z,3.33
2023-01-17T07:17:01.849Z,2.53
2023-01-17T07:19:18.882Z,3.00
2023-01-17T07:21:37.147Z,3.00
2023-01-17T07:23:54.464Z,2.97
2023-01-17T07:26:12.500Z,2.30
2023-01-17T07:28:29.523Z,2.10
2023-01-17T07:30:46.791Z,2.40
2023-01-17T07:33:04.095Z,2.67
2023-01-17T07:35:21.319Z,9.20
2023-01-17T07:37:38.213Z,6.20
2023-01-17T07:39:55.494Z,6.97
2023-01-17T07:42:12.569Z,5.50
2023-01-17T07:44:29.844Z,4.30
2023-01-17T07:46:46.914Z,3.78
2023-01-17T07:49:04.289Z,3.10
2023-01-17T07:51:21.483Z,3.25
2023-01-17T07:53:38.643Z,3.15
2023-01-17T07:55:56.729Z,4.25
2023-01-17T07:58:13.681Z,4.30
2023-01-17T08:00:31.761Z,4.28
2023-01-17T08:02:49.054Z,3.88
2023-01-17T08:05:07.360Z,3.15
2023-01-17T08:07:24.575Z,2.67
2023-01-17T08:09:43.167Z,2.60
2023-01-17T08:12:01.440Z,2.75
2023-01-17T08:14:18.741Z,2.80
2023-01-17T08:16:35.851Z,2.90
2023-01-17T08:18:53.229Z,2.88
2023-01-17T08:21:10.299Z,2.85
2023-01-17T08:23:27.205Z,2.58
2023-01-17T08:25:44.210Z,2.70
2023-01-17T08:28:01.378Z,4.88
2023-01-17T08:30:18.732Z,9.25
2023-01-17T08:32:36.033Z,10.93
2023-01-17T08:34:53.206Z,7.32
2023-01-17T08:37:10.249Z,5.18
2023-01-17T08:39:27.517Z,4.35
2023-01-17T08:41:44.458Z,4.72
2023-01-17T08:44:01.534Z,6.05
2023-01-17T08:46:19.277Z,7.43
2023-01-17T08:48:36.324Z,9.13
2023-01-17T08:50:53.398Z,9.05
2023-01-17T08:53:10.469Z,5.95
2023-01-17T08:55:28.493Z,5.00
2023-01-17T08:57:45.447Z,4.90
2023-01-17T09:00:02.746Z,4.38
2023-01-17T09:02:20.035Z,4.55
2023-01-17T09:04:37.446Z,5.47
2023-01-17T09:06:54.747Z,5.45
2023-01-17T09:09:13.009Z,6.13
2023-01-17T09:11:30.068Z,5.90
2023-01-17T09:13:47.149Z,4.90
2023-01-17T09:16:04.410Z,4.45
2023-01-17T09:18:21.788Z,4.55
2023-01-17T09:20:38.743Z,4.68
2023-01-17T09:22:56.006Z,5.32
2023-01-17T09:25:12.992Z,5.30
2023-01-17T09:27:30.061Z,5.03
2023-01-17T09:29:48.431Z,5.35
2023-01-17T09:32:05.592Z,5.20
2023-01-17T09:34:22.815Z,4.65
2023-01-17T09:36:41.071Z,4.65
2023-01-17T09:38:59.601Z,3.88
2023-01-17T09:41:16.929Z,4.00
2023-01-17T09:43:34.315Z,4.30
2023-01-17T09:45:52.458Z,3.80
2023-01-17T09:48:10.613Z,3.17
2023-01-17T09:50:27.961Z,3.90
2023-01-17T09:52:45.250Z,3.42
2023-01-17T09:55:06.124Z,3.97
2023-01-17T09:57:26.235Z,3.63
2023-01-17T09:59:45.677Z,3.30
2023-01-17T10:02:02.974Z,3.50
2023-01-17T10:04:21.417Z,3.50
2023-01-17T10:06:38.802Z,3.35
2023-01-17T10:08:56.242Z,3.17
2023-01-17T10:11:13.707Z,3.42
2023-01-17T10:13:30.832Z,3.30
2023-01-17T10:15:48.086Z,3.17
2023-01-17T10:18:05.442Z,3.58
2023-01-17T10:20:22.788Z,3.70
2023-01-17T10:22:39.713Z,3.38
2023-01-17T10:24:59.775Z,3.53
2023-01-17T10:27:17.071Z,3.20
2023-01-17T10:29:35.143Z,3.25
2023-01-17T10:31:52.441Z,3.42
2023-01-17T10:34:09.692Z,3.40
2023-01-17T10:36:27.741Z,3.53
2023-01-17T10:38:44.745Z,4.38
2023-01-17T10:41:01.819Z,4.00
2023-01-17T10:43:19.916Z,3.97
2023-01-17T10:45:37.252Z,4.40
2023-01-17T10:47:54.640Z,4.18
2023-01-17T10:50:12.714Z,4.18
2023-01-17T10:52:29.812Z,3.78
2023-01-17T10:54:50.583Z,3.83
2023-01-17T10:57:08.074Z,3.22
2023-01-17T10:59:25.131Z,3.28
2023-01-17T11:01:42.296Z,3.42
2023-01-17T11:03:59.664Z,3.13
2023-01-17T11:06:20.677Z,3.03
2023-01-17T11:08:39.828Z,3.08
2023-01-17T11:10:56.755Z,3.00
2023-01-17T11:13:14.170Z,2.92
2023-01-17T11:15:31.476Z,3.30
2023-01-17T11:17:48.450Z,2.60
2023-01-17T11:20:05.377Z,2.80
2023-01-17T11:22:22.681Z,2.88
2023-01-17T11:24:39.979Z,3.28
2023-01-17T11:26:57.218Z,3.28
2023-01-17T11:29:14.080Z,3.10
2023-01-17T11:31:31.491Z,2.95
2023-01-17T11:33:48.745Z,2.75
2023-01-17T11:36:05.855Z,2.90
2023-01-17T11:38:23.211Z,3.10
2023-01-17T11:40:40.464Z,3.10
2023-01-17T11:42:57.575Z,3.20
2023-01-17T11:45:14.863Z,3.15
2023-01-17T11:47:31.933Z,2.97
2023-01-17T11:49:49.255Z,2.88
2023-01-17T11:52:06.255Z,3.00
2023-01-17T11:54:25.882Z,3.10
2023-01-17T11:56:43.469Z,3.38
2023-01-17T11:59:00.537Z,3.30
2023-01-17T12:01:17.551Z,2.92
2023-01-17T12:03:35.663Z,2.72
2023-01-17T12:05:52.689Z,2.85
2023-01-17T12:08:10.039Z,3.33
2023-01-17T12:10:26.971Z,3.15
2023-01-17T12:12:44.996Z,3.30
2023-01-17T12:15:02.061Z,2.92
2023-01-17T12:17:19.402Z,2.55
2023-01-17T12:19:36.375Z,3.05
2023-01-17T12:21:54.768Z,3.10
2023-01-17T12:24:11.820Z,2.70
2023-01-17T12:26:28.739Z,3.15
2023-01-17T12:28:45.859Z,2.95
2023-01-17T12:31:02.943Z,2.67
2023-01-17T12:33:20.116Z,3.00
2023-01-17T12:35:37.024Z,3.05
2023-01-17T12:38:04.448Z,2.95
2023-01-17T12:40:22.074Z,2.85
2023-01-17T12:42:39.250Z,2.65
2023-01-17T12:44:57.566Z,2.90
2023-01-17T12:47:14.518Z,2.80
2023-01-17T12:49:32.399Z,2.35
2023-01-17T12:51:49.703Z,2.80
2023-01-17T12:54:06.847Z,2.50
2023-01-17T12:56:23.841Z,2.65
2023-01-17T12:58:40.861Z,2.72
2023-01-17T13:00:58.225Z,2.78
2023-01-17T13:03:16.696Z,2.38
2023-01-17T13:05:33.905Z,2.53
2023-01-17T13:07:52.229Z,2.67
2023-01-17T13:10:09.219Z,2.28
2023-01-17T13:12:26.334Z,2.20
2023-01-17T13:14:44.267Z,2.45
2023-01-17T13:17:01.246Z,2.60
2023-01-17T13:19:18.233Z,2.40
2023-01-17T13:21:35.506Z,2.22
2023-01-17T13:23:52.801Z,2.38
2023-01-17T13:26:09.880Z,2.47
2023-01-17T13:28:26.901Z,2.22
2023-01-17T13:30:44.203Z,2.30
2023-01-17T13:33:02.285Z,2.38
2023-01-17T13:35:19.317Z,2.53
2023-01-17T13:37:36.614Z,2.33
2023-01-17T13:39:54.590Z,2.03
2023-01-17T13:42:11.619Z,4.13
2023-01-17T13:44:28.706Z,3.95
2023-01-17T13:46:45.659Z,3.80
2023-01-17T13:49:03.054Z,3.25
2023-01-17T13:51:20.050Z,2.80
2023-01-17T13:53:37.171Z,2.53
2023-01-17T13:55:54.417Z,2.60
2023-01-17T13:58:11.618Z,2.22
2023-01-17T14:00:28.654Z,2.50
2023-01-17T14:02:48.273Z,2.72
2023-01-17T14:05:05.246Z,2.75
2023-01-17T14:07:22.315Z,2.53
2023-01-17T14:09:39.357Z,2.70
2023-01-17T14:11:56.403Z,2.22
2023-01-17T14:14:13.732Z,2.50
2023-01-17T14:16:30.934Z,2.33
2023-01-17T14:18:48.079Z,2.40
2023-01-17T14:21:05.206Z,2.10
2023-01-17T14:23:22.328Z,2.35
2023-01-17T14:25:39.362Z,2.20
2023-01-17T14:27:59.570Z,2.10
2023-01-17T14:30:17.027Z,2.10
2023-01-17T14:32:34.130Z,2.00
2023-01-17T14:34:51.513Z,2.00
2023-01-17T14:37:08.561Z,1.83
2023-01-17T14:39:25.624Z,2.00
2023-01-17T14:41:42.634Z,2.50
2023-01-17T14:44:00.068Z,2.10
2023-01-17T14:46:17.020Z,2.03
2023-01-17T14:48:34.400Z,1.80
2023-01-17T14:50:51.334Z,1.85
2023-01-17T14:53:08.486Z,2.00
2023-01-17T14:55:25.592Z,1.98
2023-01-17T14:57:42.882Z,2.10
2023-01-17T14:59:59.991Z,2.20
2023-01-17T15:02:17.335Z,2.00
2023-01-17T15:04:34.697Z,1.77
2023-01-17T15:06:51.942Z,2.10
2023-01-17T15:09:09.139Z,2.40
2023-01-17T15:11:26.170Z,2.53
2023-01-17T15:13:45.143Z,2.22
2023-01-17T15:16:02.840Z,2.40
2023-01-17T15:18:21.194Z,2.78
2023-01-17T15:20:38.430Z,2.22
2023-01-17T15:22:55.498Z,2.65
2023-01-17T15:25:16.159Z,2.50
2023-01-17T15:27:33.377Z,2.50
2023-01-17T15:29:51.311Z,2.85
2023-01-17T15:32:09.646Z,2.63
2023-01-17T15:34:26.748Z,2.83
2023-01-17T15:36:44.004Z,2.90
2023-01-17T15:39:01.194Z,2.97
2023-01-17T15:41:18.125Z,3.58
2023-01-17T15:43:35.032Z,4.30
2023-01-17T15:45:53.050Z,5.30
2023-01-17T15:48:10.464Z,7.05
2023-01-17T15:50:27.476Z,7.20
2023-01-17T15:52:45.899Z,6.95
2023-01-17T15:55:04.253Z,7.78
2023-01-17T15:57:22.005Z,7.88
2023-01-17T15:59:39.965Z,6.43
2023-01-17T16:01:57.623Z,5.90
2023-01-17T16:04:14.797Z,3.78
2023-01-17T16:06:32.926Z,3.72
2023-01-17T16:08:50.298Z,3.85
2023-01-17T16:11:07.360Z,3.13
2023-01-17T16:13:25.299Z,2.80
2023-01-17T16:15:42.770Z,2.10
2023-01-17T16:18:00.222Z,2.22
2023-01-17T16:20:18.552Z,2.05
2023-01-17T16:22:35.513Z,2.00
2023-01-17T16:24:52.767Z,2.08
2023-01-17T16:27:09.987Z,1.77
2023-01-17T16:29:28.137Z,1.80
2023-01-17T16:31:45.497Z,1.92
2023-01-17T16:34:03.555Z,2.00
2023-01-17T16:36:20.925Z,1.90
2023-01-17T16:38:38.379Z,1.95
2023-01-17T16:40:55.697Z,2.10
2023-01-17T16:43:13.207Z,2.55
2023-01-17T16:45:30.530Z,2.35
2023-01-17T16:47:48.923Z,2.50
2023-01-17T16:50:06.466Z,2.40
2023-01-17T16:52:24.554Z,2.28
2023-01-17T16:54:41.641Z,2.10
2023-01-17T16:56:58.805Z,2.42
2023-01-17T16:59:15.890Z,2.38
2023-01-17T17:01:33.028Z,2.97
2023-01-17T17:03:49.969Z,3.00
2023-01-17T17:06:06.993Z,3.05
2023-01-17T17:08:24.121Z,3.20
2023-01-17T17:10:41.572Z,3.38
2023-01-17T17:12:59.820Z,3.33
2023-01-17T17:15:18.015Z,2.72
2023-01-17T17:17:35.373Z,2.45
2023-01-17T17:19:52.349Z,2.65
2023-01-17T17:22:09.300Z,2.63
2023-01-17T17:24:26.595Z,3.60
2023-01-17T17:26:43.667Z,4.30
2023-01-17T17:29:01.566Z,4.05
2023-01-17T17:31:19.692Z,4.32
2023-01-17T17:33:37.092Z,4.40
2023-01-17T17:35:54.444Z,3.92
2023-01-17T17:38:11.849Z,4.20
2023-01-17T17:40:28.927Z,4.38
2023-01-17T17:42:46.033Z,3.80
2023-01-17T17:45:04.005Z,3.95
2023-01-17T17:47:22.314Z,4.10
2023-01-17T17:49:39.463Z,3.95
2023-01-17T17:51:56.978Z,5.03
2023-01-17T17:54:14.049Z,5.72
2023-01-17T17:56:32.516Z,6.80
2023-01-17T17:58:49.868Z,6.60
2023-01-17T18:01:08.034Z,7.13
2023-01-17T18:03:24.984Z,7.75
2023-01-17T18:05:42.041Z,7.45
2023-01-17T18:07:59.342Z,7.47
2023-01-17T18:10:16.555Z,7.03
2023-01-17T18:12:33.674Z,6.30
2023-01-17T18:14:50.684Z,5.85
2023-01-17T18:17:08.828Z,6.75
2023-01-17T18:19:25.856Z,7.55
2023-01-17T18:21:42.940Z,7.28
2023-01-17T18:24:00.397Z,7.40
2023-01-17T18:26:17.353Z,8.75
2023-01-17T18:28:35.569Z,8.70
2023-01-17T18:30:52.644Z,8.43
2023-01-17T18:33:09.798Z,7.80
2023-01-17T18:35:26.935Z,7.75
2023-01-17T18:37:44.015Z,7.82
2023-01-17T18:40:01.070Z,6.90
2023-01-17T18:42:18.527Z,7.22
2023-01-17T18:44:35.889Z,6.45
2023-01-17T18:46:53.209Z,6.63
2023-01-17T18:49:10.212Z,5.93
2023-01-17T18:51:27.288Z,5.95
2023-01-17T18:53:45.621Z,5.78
2023-01-17T18:56:12.265Z,5.70
2023-01-17T18:58:29.583Z,5.45
2023-01-17T19:00:47.045Z,5.88
2023-01-17T19:03:04.393Z,4.68
2023-01-17T19:05:21.345Z,4.70
2023-01-17T19:07:38.446Z,5.13
2023-01-17T19:09:55.673Z,4.85
2023-01-17T19:12:13.074Z,4.30
2023-01-17T19:14:30.065Z,4.75
2023-01-17T19:16:50.072Z,5.50
2023-01-17T19:19:06.976Z,5.63
2023-01-17T19:21:27.162Z,5.32
2023-01-17T19:23:44.184Z,5.63
2023-01-17T19:26:01.267Z,5.45
2023-01-17T19:28:18.771Z,5.68
2023-01-17T19:30:35.859Z,5.60
2023-01-17T19:32:53.997Z,5.50
2023-01-17T19:35:11.369Z,5.50
2023-01-17T19:37:28.559Z,6.03
2023-01-17T19:39:46.588Z,6.35
2023-01-17T19:42:03.617Z,6.30
2023-01-17T19:44:21.034Z,6.45
2023-01-17T19:46:39.333Z,6.30
2023-01-17T19:48:56.650Z,6.20
2023-01-17T19:51:13.894Z,6.05
2023-01-17T19:53:33.637Z,7.03
2023-01-17T19:55:51.065Z,8.25
2023-01-17T19:58:08.434Z,8.20
2023-01-17T20:00:30.044Z,7.05
2023-01-17T20:02:47.429Z,6.45
2023-01-17T20:05:04.804Z,7.40
2023-01-17T20:07:24.601Z,7.30
2023-01-17T20:09:42.939Z,7.15
2023-01-17T20:12:00.323Z,7.13
2023-01-17T20:14:17.699Z,7.00
2023-01-17T20:16:34.847Z,6.95
2023-01-17T20:18:51.985Z,6.40
2023-01-17T20:21:08.986Z,5.80
2023-01-17T20:23:25.911Z,6.18
2023-01-17T20:25:44.932Z,6.57
2023-01-17T20:28:02.536Z,6.20
2023-01-17T20:30:20.818Z,6.10
2023-01-17T20:32:37.868Z,6.05
2023-01-17T20:34:55.055Z,6.60
2023-01-17T20:37:15.785Z,6.03
2023-01-17T20:39:32.885Z,6.38
2023-01-17T20:41:50.191Z,6.53
2023-01-17T20:44:07.528Z,5.72
2023-01-17T20:46:29.069Z,6.10
2023-01-17T20:48:47.310Z,5.95
2023-01-17T20:51:04.614Z,5.45
2023-01-17T20:53:21.583Z,5.72
2023-01-17T20:55:38.636Z,6.68
2023-01-17T20:57:55.912Z,6.90
2023-01-17T21:00:13.586Z,7.95
2023-01-17T21:02:31.821Z,7.25
2023-01-17T21:04:50.018Z,9.02
2023-01-17T21:07:07.010Z,18.95
2023-01-17T21:09:26.077Z,18.40
2023-01-17T21:11:45.882Z,18.05
2023-01-17T21:14:03.258Z,14.93
2023-01-17T21:16:20.947Z,14.80
2023-01-17T21:18:37.970Z,12.40
2023-01-17T21:20:54.924Z,10.40
2023-01-17T21:23:12.423Z,8.30
2023-01-17T21:25:29.674Z,7.97
2023-01-17T21:27:46.923Z,7.85
2023-01-17T21:30:03.893Z,7.05
2023-01-17T21:32:21.145Z,6.32
2023-01-17T21:34:38.193Z,6.78
2023-01-17T21:36:55.388Z,6.35
2023-01-17T21:39:14.063Z,6.28
2023-01-17T21:41:32.154Z,6.10
2023-01-17T21:43:49.208Z,6.35
2023-01-17T21:46:06.379Z,7.00
2023-01-17T21:48:23.759Z,6.47
2023-01-17T21:50:41.026Z,6.43
2023-01-17T21:52:58.225Z,7.03
2023-01-17T21:55:15.306Z,6.60
2023-01-17T21:57:32.461Z,6.20
2023-01-17T21:59:49.807Z,6.50
2023-01-17T22:02:08.160Z,6.43
2023-01-17T22:04:27.378Z,6.05
2023-01-17T22:06:44.487Z,6.63
2023-01-17T22:09:02.027Z,6.78
2023-01-17T22:11:19.002Z,6.07
2023-01-17T22:13:36.418Z,6.47
2023-01-17T22:15:53.792Z,6.35
2023-01-17T22:18:11.410Z,6.88
2023-01-17T22:20:28.370Z,6.43
2023-01-17T22:22:48.163Z,6.95
2023-01-17T22:25:05.434Z,6.22
2023-01-17T22:27:25.036Z,6.57
2023-01-17T22:29:42.136Z,6.78
2023-01-17T22:31:59.620Z,6.45
2023-01-17T22:34:16.926Z,6.53
2023-01-17T22:36:34.429Z,6.47
2023-01-17T22:38:51.629Z,6.53
2023-01-17T22:41:08.960Z,6.10
2023-01-17T22:43:26.133Z,6.05
2023-01-17T22:45:43.277Z,6.03
2023-01-17T22:48:00.594Z,6.25
2023-01-17T22:50:17.747Z,5.65
2023-01-17T22:52:34.689Z,5.75
2023-01-17T22:54:52.923Z,6.40
2023-01-17T22:57:09.910Z,5.90
2023-01-17T22:59:27.037Z,5.68
2023-01-17T23:01:44.062Z,6.05
2023-01-17T23:04:01.442Z,5.43
2023-01-17T23:06:21.510Z,5.82
2023-01-17T23:08:38.729Z,6.18
2023-01-17T23:10:55.781Z,5.75
2023-01-17T23:13:12.884Z,6.13
2023-01-17T23:15:30.323Z,5.95
2023-01-17T23:17:48.404Z,5.78
2023-01-17T23:20:05.792Z,6.00
2023-01-17T23:22:22.976Z,5.82
2023-01-17T23:24:39.965Z,6.20
2023-01-17T23:26:57.528Z,6.05
2023-01-17T23:29:14.867Z,5.35
2023-01-17T23:31:33.474Z,6.07
2023-01-17T23:33:50.806Z,6.00
2023-01-17T23:36:08.226Z,5.90
2023-01-17T23:38:25.698Z,6.40
2023-01-17T23:40:42.740Z,5.97
2023-01-17T23:42:59.859Z,6.75
2023-01-17T23:45:16.814Z,5.95
2023-01-17T23:47:35.298Z,6.40
2023-01-17T23:49:52.566Z,6.13
2023-01-17T23:52:09.549Z,6.07
2023-01-17T23:54:26.838Z,6.53
2023-01-17T23:56:44.886Z,5.40
2023-01-17T23:59:01.992Z,5.80
